Time;durP1;ratioP1;P1;durP2;ratioP2;P2;SDS_P1;SDS_P2;PMS_P1;PMS_P2;Temp;Humidity;BMP_temperature;BMP_pressure;BME280_temperature;BME280_humidity;BME280_pressure;Samples;Min_cycle;Max_cycle;Signal;HPM_P1;HPM_P2
2022/04/06 00:00:25;;;;;;;15.85;10.40;;;;;;;3.13;88.40;95367.72;6367402;22;20013;-63
2022/04/06 00:02:50;;;;;;;18.83;11.32;;;;;;;3.14;88.17;95369.38;6367053;22;20078;-62
2022/04/06 00:05:16;;;;;;;20.70;11.20;;;;;;;3.15;88.35;95373.66;6367031;22;20002;-62
2022/04/06 00:07:43;;;;;;;16.55;10.30;;;;;;;3.10;88.43;95359.31;6367052;22;20453;-62
2022/04/06 00:10:11;;;;;;;23.42;13.70;;;;;;;3.04;89.41;95359.72;6367118;22;20003;-62
2022/04/06 00:12:37;;;;;;;22.45;14.07;;;;;;;3.03;89.47;95348.50;6367322;22;20006;-62
2022/04/06 00:15:05;;;;;;;20.55;12.30;;;;;;;2.99;89.99;95353.06;6366756;22;20006;-62
2022/04/06 00:17:31;;;;;;;22.90;12.45;;;;;;;2.99;88.75;95353.06;6367038;22;20078;-62
2022/04/06 00:19:56;;;;;;;20.58;13.57;;;;;;;3.00;88.95;95344.31;6367394;22;19999;-62
2022/04/06 00:22:22;;;;;;;24.83;12.10;;;;;;;3.00;88.91;95344.31;6367157;22;20009;-62
2022/04/06 00:24:47;;;;;;;17.10;11.20;;;;;;;2.97;89.29;95341.06;6367323;22;20006;-62
2022/04/06 00:27:13;;;;;;;18.48;10.45;;;;;;;2.95;89.56;95346.41;6367275;22;20127;-62
2022/04/06 00:29:39;;;;;;;14.88;7.88;;;;;;;2.89;89.69;95346.81;6367198;22;20124;-62
2022/04/06 00:32:04;;;;;;;10.50;8.32;;;;;;;2.86;90.06;95342.66;6366933;22;19994;-62
2022/04/06 00:37:31;;;;;;;14.13;8.50;;;;;;;2.91;89.76;95331.94;6270408;22;20015;-62
2022/04/06 00:39:56;;;;;;;11.48;7.97;;;;;;;2.89;89.42;95327.78;6346028;22;20040;-62
2022/04/06 00:42:21;;;;;;;22.45;11.13;;;;;;;2.86;89.56;95328.81;6366634;22;20003;-62
2022/04/06 00:44:47;;;;;;;26.70;14.77;;;;;;;2.81;90.52;95323.09;6367036;22;20036;-62
2022/04/06 00:47:12;;;;;;;28.20;13.70;;;;;;;2.82;89.64;95324.75;6366750;22;20009;-62
2022/04/06 00:49:38;;;;;;;31.50;14.57;;;;;;;2.77;nan;95313.84;6366781;22;20018;-62
2022/04/06 00:52:05;;;;;;;28.05;14.73;;;;;;;2.71;90.09;95315.06;6366845;22;20009;-62
2022/04/06 00:54:32;;;;;;;20.05;11.20;;;;;;;2.69;91.11;95311.75;6366670;22;20002;-62
2022/04/06 00:56:59;;;;;;;17.75;11.13;;;;;;;2.71;90.61;95309.88;6367314;22;20330;-62
2022/04/06 00:59:28;;;;;;;20.17;11.95;;;;;;;2.67;91.00;95311.03;6366763;22;20048;-62
2022/04/06 01:01:54;;;;;;;19.92;10.65;;;;;;;2.60;91.02;95312.38;6366760;22;20007;-62
2022/04/06 01:04:20;;;;;;;20.30;11.15;;;;;;;2.62;89.75;95315.69;6367110;22;20033;-62
2022/04/06 01:06:47;;;;;;;24.00;12.88;;;;;;;2.65;89.50;95320.69;6367035;22;20449;-62
2022/04/06 01:09:15;;;;;;;23.70;13.32;;;;;;;2.63;89.59;95317.34;6366459;22;20002;-62
2022/04/06 01:11:41;;;;;;;23.10;13.23;;;;;;;2.60;90.21;95320.97;6366965;22;20003;-62
2022/04/06 01:14:07;;;;;;;20.67;11.20;;;;;;;2.52;90.10;95313.69;6366618;22;20010;-62
2022/04/06 01:16:33;;;;;;;16.17;8.48;;;;;;;2.48;91.24;95324.41;6366850;22;20086;-62
2022/04/06 01:18:58;;;;;;;11.45;8.10;;;;;;;2.45;91.54;95315.03;6366210;22;20395;-62
2022/04/06 01:21:23;;;;;;;11.45;8.00;;;;;;;2.44;91.61;95318.56;6366626;22;20006;-62
2022/04/06 01:23:49;;;;;;;12.25;7.25;;;;;;;2.43;91.37;95312.56;6366700;22;20061;-62
2022/04/06 01:26:14;;;;;;;15.73;10.05;;;;;;;2.37;92.04;95305.16;6366768;22;20423;-62
2022/04/06 01:28:40;;;;;;;15.05;9.20;;;;;;;2.37;91.04;95304.34;6368346;22;20375;-62
2022/04/06 01:31:06;;;;;;;13.15;8.50;;;;;;;2.40;90.36;95302.34;6368823;22;20018;-62
2022/04/06 01:33:32;;;;;;;17.70;9.25;;;;;;;2.40;90.39;95294.56;6368399;22;20002;-62
2022/04/06 01:35:58;;;;;;;16.52;9.23;;;;;;;2.37;91.15;95299.13;6368685;22;20103;-62
2022/04/06 01:38:24;;;;;;;15.35;8.98;;;;;;;2.34;90.96;95296.75;6368802;22;20006;-62
2022/04/06 01:40:51;;;;;;;16.30;8.75;;;;;;;2.31;91.59;95294.31;6368803;22;20439;-62
2022/04/06 01:43:16;;;;;;;10.80;7.40;;;;;;;2.30;91.08;95288.31;6368579;22;20024;-62
2022/04/06 01:45:42;;;;;;;9.77;6.00;;;;;;;2.30;91.73;95277.91;6368501;22;20014;-61
2022/04/06 01:48:07;;;;;;;8.35;6.43;;;;;;;2.29;92.10;95279.66;6368585;22;20027;-63
2022/04/06 01:53:17;;;;;;;16.10;8.50;;;;;;;2.27;91.38;95273.75;6368473;22;20028;-62
2022/04/06 01:55:42;;;;;;;16.45;8.90;;;;;;;2.26;91.25;95277.28;6368507;22;20450;-62
2022/04/06 01:58:08;;;;;;;16.05;9.15;;;;;;;2.21;91.82;95273.31;6368240;22;20128;-62
2022/04/06 02:00:33;;;;;;;13.13;8.35;;;;;;;2.13;92.55;95268.66;6368447;22;20062;-62
2022/04/06 02:03:00;;;;;;;15.02;7.45;;;;;;;2.08;93.03;95263.75;6368934;22;20087;-62
2022/04/06 02:05:31;;;;;;;10.18;6.70;;;;;;;2.05;92.88;95256.16;6368319;22;20030;-62
2022/04/06 02:07:56;;;;;;;10.27;6.05;;;;;;;2.07;92.29;95261.22;6368802;22;19998;-62
2022/04/06 02:10:22;;;;;;;12.13;8.00;;;;;;;2.10;91.90;95266.22;6368178;22;20010;-62
2022/04/06 02:12:48;;;;;;;9.80;6.95;;;;;;;2.10;92.49;95263.63;6368352;22;19998;-62
2022/04/06 02:15:14;;;;;;;10.25;6.63;;;;;;;2.08;92.50;95257.69;6368238;22;20166;-62
2022/04/06 02:17:42;;;;;;;7.72;6.03;;;;;;;2.03;92.76;95259.78;6368206;22;20006;-62
2022/04/06 02:20:08;;;;;;;8.82;5.85;;;;;;;1.99;93.01;95257.38;6368587;22;20030;-62
2022/04/06 02:22:33;;;;;;;12.10;6.43;;;;;;;1.97;93.33;95256.66;6368009;22;20400;-62
2022/04/06 02:24:58;;;;;;;12.48;6.88;;;;;;;1.97;92.22;95248.03;6368176;22;20010;-62
2022/04/06 02:27:24;;;;;;;10.38;6.85;;;;;;;1.92;93.03;95250.09;6368066;22;19998;-62
2022/04/06 02:29:49;;;;;;;11.50;7.47;;;;;;;1.92;93.19;95242.31;6368074;22;20002;-63
2022/04/06 02:32:15;;;;;;;19.92;8.00;;;;;;;1.93;92.45;95247.41;6368204;22;20077;-62
2022/04/06 02:34:40;;;;;;;12.25;7.43;;;;;;;1.91;93.10;95243.22;6368048;22;20006;-63
2022/04/06 02:37:07;;;;;;;12.80;7.97;;;;;;;1.84;92.83;95248.00;6367994;22;20030;-62
2022/04/06 02:39:33;;;;;;;15.15;6.85;;;;;;;1.85;92.16;95245.31;6368015;22;20003;-62
2022/04/06 02:41:59;;;;;;;14.68;7.15;;;;;;;1.87;93.16;95240.00;6368455;22;20009;-62
2022/04/06 02:44:24;;;;;;;13.93;6.82;;;;;;;1.92;92.90;95242.31;6367936;22;20010;-63
2022/04/06 02:46:50;;;;;;;11.70;6.82;;;;;;;1.86;93.88;95240.94;6367371;22;20026;-63
2022/04/06 02:49:17;;;;;;;8.52;6.85;;;;;;;1.86;94.18;95240.94;6367224;22;20040;-63
2022/04/06 02:51:42;;;;;;;12.55;6.50;;;;;;;1.85;94.88;95244.47;6367755;22;20346;-63
2022/04/06 02:54:07;;;;;;;7.97;6.60;;;;;;;1.86;93.42;95240.94;6367758;22;19994;-63
2022/04/06 02:56:33;;;;;;;9.90;6.00;;;;;;;1.88;93.32;95246.88;6368140;22;20081;-63
2022/04/06 02:59:01;;;;;;;8.02;6.15;;;;;;;1.85;94.48;95249.66;6368077;22;20002;-63
2022/04/06 03:01:26;;;;;;;8.40;5.57;;;;;;;1.81;93.00;95243.84;6368442;22;20014;-63
2022/04/06 03:03:51;;;;;;;6.35;5.20;;;;;;;1.71;93.73;95246.19;6367857;22;20320;-63
2022/04/06 03:06:17;;;;;;;6.82;4.78;;;;;;;1.74;93.56;95252.94;6367777;22;20103;-62
2022/04/06 03:08:43;;;;;;;6.82;5.32;;;;;;;1.75;94.14;95243.41;6367891;22;20005;-63
2022/04/06 03:11:08;;;;;;;11.15;9.18;;;;;;;1.73;94.20;95237.47;6367878;22;20002;-62
2022/04/06 03:13:34;;;;;;;11.07;7.70;;;;;;;1.71;93.76;95240.16;6367192;22;20014;-62
2022/04/06 03:15:59;;;;;;;7.15;6.30;;;;;;;1.71;93.37;95229.78;6367763;22;20009;-63
2022/04/06 03:18:24;;;;;;;11.18;7.05;;;;;;;1.67;93.06;95229.16;6368228;22;20033;-63
2022/04/06 03:20:50;;;;;;;9.10;6.90;;;;;;;1.68;92.53;95228.22;6367510;22;20090;-63
2022/04/06 03:23:15;;;;;;;9.43;6.25;;;;;;;1.68;93.12;95219.59;6367728;22;19994;-63
2022/04/06 03:25:42;;;;;;;9.07;5.90;;;;;;;1.62;93.88;95223.41;6367525;22;20036;-63
2022/04/06 03:28:07;;;;;;;6.53;5.85;;;;;;;1.56;93.49;95223.81;6366950;22;19994;-63
2022/04/06 03:30:33;;;;;;;8.05;6.50;;;;;;;1.48;93.75;95221.72;6367568;22;20003;-63
2022/04/06 03:32:58;;;;;;;5.63;5.00;;;;;;;1.47;94.30;95220.03;6367613;22;19998;-63
2022/04/06 03:35:24;;;;;;;5.97;5.45;;;;;;;1.50;94.94;95219.03;6367357;22;20014;-63
2022/04/06 03:37:52;;;;;;;7.22;5.70;;;;;;;1.53;93.62;95211.84;6367096;22;20486;-63
2022/04/06 03:40:18;;;;;;;6.40;5.65;;;;;;;1.52;93.65;95210.19;6367421;22;19998;-63
2022/04/06 03:42:44;;;;;;;8.52;6.93;;;;;;;1.51;94.45;95208.53;6367591;22;20002;-63
2022/04/06 03:45:10;;;;;;;14.85;10.52;;;;;;;1.49;94.16;95210.41;6367422;22;20006;-63
2022/04/06 03:47:36;;;;;;;14.10;10.45;;;;;;;1.46;94.33;95204.59;6367263;22;20033;-63
2022/04/06 03:50:03;;;;;;;12.45;8.05;;;;;;;1.45;94.00;95203.75;6366891;22;20010;-63
2022/04/06 03:52:28;;;;;;;12.32;8.52;;;;;;;1.43;94.23;95201.22;6367683;22;20011;-63
2022/04/06 03:54:54;;;;;;;12.93;7.93;;;;;;;1.40;94.50;95204.03;6367567;22;20010;-63
2022/04/06 03:57:19;;;;;;;10.30;7.72;;;;;;;1.34;94.47;95201.84;6367228;22;20450;-63
2022/04/06 03:59:45;;;;;;;8.38;6.55;;;;;;;1.32;94.88;95203.69;6367113;22;20022;-63
2022/04/06 04:02:10;;;;;;;9.82;6.47;;;;;;;1.32;94.05;95201.09;6367098;22;20000;-63
2022/04/06 04:04:36;;;;;;;19.85;8.00;;;;;;;1.34;94.33;95198.44;6367182;22;20003;-63
2022/04/06 04:07:01;;;;;;;23.33;9.38;;;;;;;1.37;94.98;95195.63;6367582;22;20011;-61
2022/04/06 04:09:29;;;;;;;12.98;7.82;;;;;;;1.35;94.22;95185.34;6367790;22;20006;-62
2022/04/06 04:11:56;;;;;;;13.20;7.75;;;;;;;1.32;94.93;95197.66;6367313;22;20024;-62
2022/04/06 04:14:22;;;;;;;14.52;8.25;;;;;;;1.29;95.11;95185.75;6367354;22;20003;-62
2022/04/06 04:16:47;;;;;;;12.68;8.45;;;;;;;1.28;95.59;95189.25;6366980;22;20089;-62
2022/04/06 04:19:13;;;;;;;8.25;7.03;;;;;;;1.25;95.00;95187.69;6367185;22;20026;-62
2022/04/06 04:21:38;;;;;;;11.32;7.32;;;;;;;1.21;94.79;95177.59;6366928;22;20006;-62
2022/04/06 04:24:08;;;;;;;13.93;9.70;;;;;;;1.21;96.51;95181.03;6367184;22;20034;-62
2022/04/06 04:26:36;;;;;;;8.82;7.40;;;;;;;1.21;94.97;95180.19;6339291;22;20002;-62
2022/04/06 04:29:02;;;;;;;13.65;7.95;;;;;;;1.23;94.85;95171.41;6367429;22;20002;-62
2022/04/06 04:31:27;;;;;;;11.90;8.20;;;;;;;1.24;94.61;95174.84;6366983;22;20003;-62
2022/04/06 04:33:53;;;;;;;10.52;7.53;;;;;;;1.21;95.28;95169.81;6339361;22;20025;-62
2022/04/06 04:36:18;;;;;;;8.85;7.88;;;;;;;1.20;95.45;95168.16;6367006;22;20009;-62
2022/04/06 04:38:43;;;;;;;12.70;7.50;;;;;;;1.19;95.20;95172.53;6367055;22;20014;-62
2022/04/06 04:41:09;;;;;;;24.90;12.82;;;;;;;1.19;95.02;95174.28;6367146;22;20040;-62
2022/04/06 04:43:35;;;;;;;23.15;11.32;;;;;;;1.17;95.68;95170.94;6366669;22;20009;-62
2022/04/06 04:46:01;;;;;;;9.25;8.35;;;;;;;1.16;95.44;95177.06;6367315;22;20315;-62
2022/04/06 04:48:27;;;;;;;12.27;9.23;;;;;;;1.16;95.42;95171.88;6367436;22;19998;-62
2022/04/06 04:50:52;;;;;;;12.10;8.38;;;;;;;1.11;95.74;95174.78;6367012;22;20567;-61
2022/04/06 04:53:18;;;;;;;12.02;8.73;;;;;;;1.09;96.04;95167.09;6367113;22;20350;-61
2022/04/06 04:55:43;;;;;;;12.40;8.80;;;;;;;1.09;95.87;95172.28;6366847;22;20006;-61
2022/04/06 04:58:09;;;;;;;16.33;8.27;;;;;;;1.07;96.40;95171.53;6367217;22;20006;-61
2022/04/06 05:00:34;;;;;;;11.65;8.65;;;;;;;1.08;96.35;95165.41;6366797;22;20017;-61
2022/04/06 05:03:00;;;;;;;15.20;9.88;;;;;;;1.09;96.56;95169.69;6369279;22;20063;-62
2022/04/06 05:05:25;;;;;;;16.40;10.82;;;;;;;1.06;95.96;95167.28;6369025;22;19999;-61
2022/04/06 05:07:51;;;;;;;16.30;9.55;;;;;;;1.06;95.41;95164.69;6368910;22;20458;-62
2022/04/06 05:10:16;;;;;;;17.52;9.75;;;;;;;1.07;95.40;95162.91;6368943;22;20045;-62
2022/04/06 05:12:42;;;;;;;14.98;8.93;;;;;;;1.06;95.84;95163.84;6369078;22;20036;-61
2022/04/06 05:15:08;;;;;;;12.30;9.00;;;;;;;1.04;95.88;95161.38;6369146;22;20052;-62
2022/04/06 05:17:36;;;;;;;11.25;8.50;;;;;;;1.03;95.70;95164.88;6369207;22;20063;-62
2022/04/06 05:20:01;;;;;;;13.05;9.13;;;;;;;1.04;96.33;95163.97;6368677;22;20002;-62
2022/04/06 05:22:27;;;;;;;11.73;8.95;;;;;;;1.06;96.03;95169.88;6368539;22;20002;-62
2022/04/06 05:24:53;;;;;;;10.10;8.25;;;;;;;1.05;96.14;95169.97;6368943;22;20010;-62
2022/04/06 05:27:19;;;;;;;13.45;9.80;;;;;;;1.01;96.17;95177.13;6369029;22;19998;-62
2022/04/06 05:29:45;;;;;;;12.95;8.45;;;;;;;1.01;97.47;95171.94;6368790;22;20389;-62
2022/04/06 05:32:11;;;;;;;9.82;8.75;;;;;;;1.05;96.22;95176.00;6368384;22;19994;-61
2022/04/06 05:34:36;;;;;;;10.48;7.57;;;;;;;1.10;96.36;95168.75;6368636;22;19998;-62
2022/04/06 05:37:03;;;;;;;9.32;8.00;;;;;;;1.15;96.52;95171.06;6368823;22;20003;-62
2022/04/06 05:39:28;;;;;;;12.30;8.70;;;;;;;1.17;96.23;95173.53;6368826;22;20013;-62
2022/04/06 05:41:53;;;;;;;10.98;9.15;;;;;;;1.15;96.53;95176.25;6368663;22;20007;-62
2022/04/06 05:44:19;;;;;;;10.02;9.13;;;;;;;1.16;96.74;95179.66;6368312;22;19998;-62
2022/04/06 05:46:44;;;;;;;12.98;8.68;;;;;;;1.17;96.35;95181.31;6368641;22;20392;-62
2022/04/06 05:49:10;;;;;;;11.05;9.23;;;;;;;1.17;96.52;95186.50;6368410;22;20014;-62
2022/04/06 05:51:35;;;;;;;10.63;9.52;;;;;;;1.20;96.98;95187.16;6368425;22;20028;-61
2022/04/06 05:54:02;;;;;;;11.77;9.30;;;;;;;1.21;96.66;95191.41;6368759;22;20033;-62
2022/04/06 05:56:31;;;;;;;10.57;8.40;;;;;;;1.21;96.62;95186.22;6368375;22;20010;-61
2022/04/06 05:58:57;;;;;;;12.77;8.77;;;;;;;1.22;96.39;95185.28;6368382;22;20006;-62
2022/04/06 06:01:22;;;;;;;10.02;9.13;;;;;;;1.27;95.75;95188.41;6367564;22;20617;-62
2022/04/06 06:03:48;;;;;;;9.40;8.50;;;;;;;1.31;96.43;95191.66;6367821;22;20002;-62
2022/04/06 06:06:13;;;;;;;9.88;8.88;;;;;;;1.34;96.85;95191.47;6368541;22;20712;-62
2022/04/06 06:08:39;;;;;;;11.27;10.18;;;;;;;1.35;96.60;95193.13;6368368;22;20338;-63
2022/04/06 06:11:05;;;;;;;11.70;10.50;;;;;;;1.40;95.80;95196.25;6339940;22;20089;-62
2022/04/06 06:13:31;;;;;;;11.45;10.18;;;;;;;1.46;95.31;95194.22;6368397;22;20005;-62
2022/04/06 06:15:57;;;;;;;15.25;10.68;;;;;;;1.51;95.57;95192.97;6368161;22;20085;-62
2022/04/06 06:18:24;;;;;;;13.45;10.90;;;;;;;1.53;95.98;95191.09;6367198;22;20030;-62
2022/04/06 06:20:49;;;;;;;20.13;12.93;;;;;;;1.53;96.45;95190.28;6366317;22;20400;-62
2022/04/06 06:23:14;;;;;;;15.23;11.40;;;;;;;1.60;96.58;95194.13;6366320;22;20077;-62
2022/04/06 06:25:40;;;;;;;16.85;10.50;;;;;;;1.66;96.88;95190.31;6367554;22;20026;-62
2022/04/06 06:28:05;;;;;;;16.48;12.23;;;;;;;1.71;96.10;95189.09;6367791;22;20330;-63
2022/04/06 06:30:30;;;;;;;21.80;12.98;;;;;;;1.75;97.21;95194.09;6368261;22;20002;-62
2022/04/06 06:32:56;;;;;;;20.60;12.32;;;;;;;1.80;97.24;95192.00;6366941;22;20364;-60
2022/04/06 06:35:23;;;;;;;13.65;10.30;;;;;;;1.83;96.41;95191.81;6366582;22;20012;-62
2022/04/06 06:37:51;;;;;;;16.63;10.63;;;;;;;1.88;94.99;95186.31;6365982;22;20009;-65
2022/04/06 06:40:18;;;;;;;19.45;11.95;;;;;;;1.89;95.82;95188.84;6366812;22;20005;-66
2022/04/06 06:42:43;;;;;;;18.08;12.90;;;;;;;1.93;96.16;95179.06;6367174;22;20059;-62
2022/04/06 06:45:10;;;;;;;14.98;12.77;;;;;;;1.91;96.09;95181.78;6366383;22;20025;-63
2022/04/06 06:47:35;;;;;;;26.35;15.10;;;;;;;2.01;96.47;95184.59;6366692;22;20077;-63
2022/04/06 06:50:02;;;;;;;77.45;35.92;;;;;;;2.11;94.84;95177.03;6366425;22;20078;-62
2022/04/06 06:52:27;;;;;;;99.25;47.10;;;;;;;2.66;94.94;95179.38;6366955;22;20003;-62
2022/04/06 06:54:53;;;;;;;45.88;26.38;;;;;;;3.78;92.90;95171.50;6366633;22;20325;-61
2022/04/06 06:57:18;;;;;;;39.33;23.83;;;;;;;4.88;89.17;95178.94;6368106;22;20006;-61
2022/04/06 06:59:43;;;;;;;31.52;20.90;;;;;;;5.88;84.88;95167.50;6367758;22;20014;-61
2022/04/06 07:02:09;;;;;;;26.10;13.88;;;;;;;7.06;79.68;95174.34;6365808;22;20082;-61
2022/04/06 07:04:36;;;;;;;12.68;9.27;;;;;;;8.01;74.16;95165.09;6366546;22;20013;-61
2022/04/06 07:07:01;;;;;;;7.97;6.80;;;;;;;8.35;75.29;95160.38;6367077;22;19998;-61
2022/04/06 07:09:27;;;;;;;9.93;6.70;;;;;;;8.93;72.21;95153.31;6367095;22;19998;-62
2022/04/06 07:11:52;;;;;;;11.63;7.20;;;;;;;9.28;69.27;95157.00;6366612;22;20013;-61
2022/04/06 07:14:18;;;;;;;5.18;4.78;;;;;;;9.75;67.39;95164.72;6364033;22;20002;-62
2022/04/06 07:16:44;;;;;;;6.30;4.63;;;;;;;9.78;67.97;95162.78;6365661;22;20017;-62
2022/04/06 07:19:09;;;;;;;6.93;4.20;;;;;;;9.78;67.61;95154.88;6367564;22;20006;-62
2022/04/06 07:21:35;;;;;;;4.60;4.20;;;;;;;10.02;66.08;95152.47;6367404;22;20010;-61
2022/04/06 07:24:03;;;;;;;3.72;3.42;;;;;;;10.02;65.46;95151.66;6366023;22;20033;-61
2022/04/06 07:26:28;;;;;;;3.92;3.60;;;;;;;10.31;65.11;95154.03;6366860;22;20606;-61
2022/04/06 07:28:54;;;;;;;3.50;3.20;;;;;;;10.80;63.14;95146.59;6366454;22;20006;-62
2022/04/06 07:31:19;;;;;;;5.32;4.15;;;;;;;11.18;60.57;95145.31;6366373;22;20003;-61
2022/04/06 07:33:45;;;;;;;4.07;3.78;;;;;;;11.48;59.17;95141.44;6364032;22;20394;-62
2022/04/06 07:36:10;;;;;;;3.25;3.05;;;;;;;11.88;56.75;95138.03;6366510;22;20010;-60
2022/04/06 07:38:35;;;;;;;3.72;3.50;;;;;;;11.95;57.96;95138.22;6367067;22;20002;-59
2022/04/06 07:41:01;;;;;;;4.20;3.33;;;;;;;12.04;56.44;95125.88;6367153;22;20002;-60
2022/04/06 07:43:26;;;;;;;4.10;3.67;;;;;;;12.07;55.93;95127.38;6364125;22;20008;-59
2022/04/06 07:45:52;;;;;;;4.93;3.78;;;;;;;12.09;56.36;95128.03;6364653;22;20009;-60
2022/04/06 07:48:17;;;;;;;4.13;3.83;;;;;;;11.88;56.90;95127.47;6365545;22;20002;-60
2022/04/06 07:50:43;;;;;;;4.60;4.05;;;;;;;12.60;55.25;95125.97;6364376;22;20025;-59
2022/04/06 07:53:08;;;;;;;3.97;3.67;;;;;;;13.14;52.45;95123.66;6364280;22;19998;-60
2022/04/06 07:55:34;;;;;;;6.63;4.95;;;;;;;13.05;53.84;95122.88;6364488;22;20438;-59
2022/04/06 07:58:00;;;;;;;4.53;4.13;;;;;;;13.03;53.69;95124.88;6365918;22;20006;-59
2022/04/06 08:00:25;;;;;;;4.40;4.00;;;;;;;13.21;51.98;95121.97;6365185;22;20062;-60
2022/04/06 08:02:51;;;;;;;4.40;3.97;;;;;;;13.26;51.73;95127.59;6364844;22;20030;-60
2022/04/06 08:05:18;;;;;;;5.90;4.63;;;;;;;12.73;53.10;95116.72;6365347;22;20375;-60
2022/04/06 08:07:44;;;;;;;4.47;4.18;;;;;;;12.55;54.69;95119.56;6365235;22;20074;-60
2022/04/06 08:10:12;;;;;;;4.32;3.92;;;;;;;12.53;55.09;95119.75;6365804;22;20030;-59
2022/04/06 08:12:38;;;;;;;3.65;3.38;;;;;;;12.87;54.04;95116.00;6365005;22;20352;-60
2022/04/06 08:15:04;;;;;;;6.53;4.13;;;;;;;13.08;51.93;95105.88;6365121;22;20047;-59
2022/04/06 08:17:36;;;;;;;4.68;4.28;;;;;;;13.15;51.26;95099.72;6365286;22;19998;-59
2022/04/06 08:20:02;;;;;;;5.15;4.65;;;;;;;13.50;50.85;95101.22;6366049;22;20029;-59
2022/04/06 08:22:28;;;;;;;5.22;4.50;;;;;;;13.55;50.86;95106.78;6366710;22;20002;-60
2022/04/06 08:24:53;;;;;;;5.28;4.88;;;;;;;13.58;51.88;95099.34;6365840;22;20443;-60
2022/04/06 08:27:18;;;;;;;4.07;3.78;;;;;;;13.53;50.02;95108.78;6366879;22;20002;-60
2022/04/06 08:29:44;;;;;;;3.72;3.53;;;;;;;14.04;47.93;95103.81;6366404;22;20009;-60
2022/04/06 08:32:09;;;;;;;4.32;4.03;;;;;;;13.71;51.23;95103.25;6365465;22;20067;-59
2022/04/06 08:34:34;;;;;;;4.40;4.00;;;;;;;13.93;47.90;95104.22;6365677;22;20070;-60
2022/04/06 08:37:02;;;;;;;4.32;3.92;;;;;;;13.34;50.04;95105.56;6365060;22;20006;-60
2022/04/06 08:39:27;;;;;;;4.18;3.88;;;;;;;12.90;52.43;95099.81;6364546;22;19998;-60
2022/04/06 08:41:55;;;;;;;3.90;3.50;;;;;;;14.11;46.79;95103.91;6365606;22;20002;-60
2022/04/06 08:44:21;;;;;;;5.05;4.35;;;;;;;13.54;49.31;95105.16;6365178;22;20002;-59
2022/04/06 08:46:50;;;;;;;5.15;4.68;;;;;;;13.88;49.24;95093.34;6364769;22;20006;-60
2022/04/06 08:49:16;;;;;;;4.47;4.07;;;;;;;13.80;47.77;95096.03;6366184;22;20029;-60
2022/04/06 08:51:44;;;;;;;4.70;4.30;;;;;;;14.30;46.58;95094.66;6366552;22;20434;-60
2022/04/06 08:54:10;;;;;;;5.25;4.75;;;;;;;14.51;46.55;95087.84;6366172;22;20031;-60
2022/04/06 08:56:35;;;;;;;4.65;4.25;;;;;;;14.57;46.72;95096.88;6364449;22;20006;-59
2022/04/06 08:59:04;;;;;;;4.13;3.83;;;;;;;14.33;48.06;95099.59;6365152;22;20022;-60
2022/04/06 09:01:33;;;;;;;4.60;4.30;;;;;;;13.81;48.85;95098.53;6366096;22;20007;-60
2022/04/06 09:04:00;;;;;;;5.22;4.72;;;;;;;14.29;48.23;95098.31;6364584;22;20002;-59
2022/04/06 09:06:29;;;;;;;5.07;4.68;;;;;;;14.29;47.00;95090.38;6366059;22;20741;-59
2022/04/06 09:08:55;;;;;;;5.20;4.70;;;;;;;14.76;45.45;95090.25;6366428;22;20470;-59
2022/04/06 09:11:20;;;;;;;5.88;4.57;;;;;;;14.18;47.25;95093.44;6366406;22;20002;-59
2022/04/06 09:13:48;;;;;;;4.32;3.95;;;;;;;14.43;46.63;95086.09;6366240;22;20438;-59
2022/04/06 09:16:16;;;;;;;5.22;4.43;;;;;;;14.43;46.96;95086.09;6365808;22;20015;-59
2022/04/06 09:18:46;;;;;;;5.00;4.50;;;;;;;14.23;48.60;95088.41;6365889;22;20100;-59
2022/04/06 09:21:18;;;;;;;4.75;4.32;;;;;;;14.01;47.96;95082.97;6366122;22;20069;-60
2022/04/06 09:23:48;;;;;;;4.78;4.38;;;;;;;14.17;48.46;95089.97;6365876;22;20085;-59
2022/04/06 09:26:16;;;;;;;5.20;4.80;;;;;;;14.10;47.67;95080.28;6365984;22;19995;-60
2022/04/06 09:28:45;;;;;;;6.75;6.07;;;;;;;14.70;47.77;95077.69;6336616;22;20010;-59
2022/04/06 09:31:15;;;;;;;6.32;5.13;;;;;;;14.96;46.46;95085.22;6363792;22;19999;-60
2022/04/06 09:33:43;;;;;;;5.53;4.95;;;;;;;14.82;47.68;95081.56;6364457;22;20025;-60
2022/04/06 09:36:19;;;;;;;6.03;4.72;;;;;;;15.21;46.00;95081.44;6365541;22;20070;-59
2022/04/06 09:38:49;;;;;;;3.17;2.97;;;;;;;15.43;43.35;95074.34;6365917;22;20014;-60
2022/04/06 09:41:15;;;;;;;5.30;4.90;;;;;;;14.30;47.27;95068.19;6365970;22;20006;-59
2022/04/06 09:43:44;;;;;;;4.88;4.55;;;;;;;14.43;46.48;95064.06;6366398;22;20111;-61
2022/04/06 09:49:09;;;;;;;5.03;4.50;;;;;;;13.62;48.85;95054.88;6365069;22;20026;-62
2022/04/06 09:51:38;;;;;;;5.80;5.13;;;;;;;13.14;49.82;95058.41;6367864;22;20067;-62
2022/04/06 09:54:09;;;;;;;4.68;4.30;;;;;;;13.52;48.88;95054.25;6368046;22;20068;-64
2022/04/06 09:56:36;;;;;;;5.18;4.68;;;;;;;13.24;49.71;95052.09;6366390;22;20048;-65
2022/04/06 09:59:03;;;;;;;7.57;4.82;;;;;;;12.99;51.35;95053.03;6365226;22;20003;-62
2022/04/06 10:01:35;;;;;;;5.03;4.63;;;;;;;13.12;50.16;95047.19;6367207;22;20002;-66
2022/04/06 10:04:05;;;;;;;10.00;5.00;;;;;;;13.23;50.73;95043.31;6367228;22;20052;-67
2022/04/06 10:06:35;;;;;;;6.53;4.25;;;;;;;13.51;49.49;95049.97;6366536;22;20056;-63
2022/04/06 10:09:02;;;;;;;5.60;5.20;;;;;;;13.33;49.42;95037.81;6367470;22;20002;-68
2022/04/06 10:11:28;;;;;;;6.10;5.60;;;;;;;13.39;50.46;95039.78;6367428;22;20010;-64
2022/04/06 10:13:56;;;;;;;5.50;4.85;;;;;;;13.81;48.90;95036.84;6338963;22;20162;-65
2022/04/06 10:16:23;;;;;;;5.10;4.55;;;;;;;13.77;49.10;95036.41;6365508;22;20029;-62
2022/04/06 10:18:51;;;;;;;5.82;5.00;;;;;;;13.85;49.71;95030.22;6366723;22;20026;-63
2022/04/06 10:21:43;;;;;;;4.53;4.13;;;;;;;14.42;47.62;95025.34;6366968;22;20002;-62
2022/04/06 10:24:39;;;;;;;4.97;4.57;;;;;;;14.32;47.50;95020.31;6346960;22;20014;-62
2022/04/06 10:27:17;;;;;;;;;;;;;;;14.48;47.60;95022.00;6369112;22;20010;-62
2022/04/06 10:30:17;;;;;;;5.60;5.10;;;;;;;14.78;46.92;95022.00;6368261;22;19906;-62
2022/04/06 10:32:45;;;;;;;4.90;4.47;;;;;;;14.80;46.70;95012.03;6368387;22;20002;-62
2022/04/06 10:35:33;;;;;;;4.68;4.20;;;;;;;15.06;45.89;95010.69;6367946;22;20009;-62
2022/04/06 10:37:59;;;;;;;5.70;5.20;;;;;;;15.14;46.11;95007.97;6367879;22;20006;-62
2022/04/06 10:40:25;;;;;;;5.80;5.30;;;;;;;15.09;46.76;94999.72;6368077;22;20006;-62
2022/04/06 10:42:51;;;;;;;4.35;3.95;;;;;;;15.50;45.95;94997.47;6368046;22;20074;-63
2022/04/06 10:45:29;;;;;;;5.72;4.80;;;;;;;15.70;44.85;95000.34;6368041;22;20040;-62
2022/04/06 10:48:18;;;;;;;6.53;4.57;;;;;;;16.08;43.69;94989.41;6368036;22;20445;-62
2022/04/06 10:50:48;;;;;;;4.97;4.32;;;;;;;16.08;43.69;94991.25;6367668;22;20029;-63
2022/04/06 10:53:22;;;;;;;4.50;4.10;;;;;;;16.52;42.70;94982.13;6368114;22;20014;-63
2022/04/06 10:56:06;;;;;;;6.28;4.60;;;;;;;16.20;43.38;94987.03;6366356;22;20003;-63
2022/04/06 10:58:54;;;;;;;5.25;4.35;;;;;;;16.29;44.02;94979.75;6367809;22;20030;-63
2022/04/06 11:01:26;;;;;;;4.80;4.40;;;;;;;16.75;41.75;94978.34;6368237;22;20427;-63
2022/04/06 11:04:04;;;;;;;4.30;3.90;;;;;;;16.75;42.73;94967.72;6367739;22;19998;-63
2022/04/06 11:06:45;;;;;;;5.65;4.25;;;;;;;17.09;41.40;94974.00;6367984;22;20010;-62
2022/04/06 11:12:18;;;;;;;5.78;4.30;;;;;;;17.33;41.00;94966.47;6367553;22;20346;-61
2022/04/06 11:14:47;;;;;;;7.50;4.35;;;;;;;17.37;40.84;94965.06;6367353;22;20008;-63
2022/04/06 11:17:34;;;;;;;5.10;4.30;;;;;;;17.30;41.15;94957.06;6367322;22;20006;-62
2022/04/06 11:20:17;;;;;;;3.90;3.60;;;;;;;17.49;40.25;94964.47;6367548;22;20002;-62
2022/04/06 11:22:53;;;;;;;3.78;3.50;;;;;;;17.14;40.71;94960.94;6367461;22;20018;-63
2022/04/06 11:25:20;;;;;;;3.70;3.30;;;;;;;17.12;40.15;94952.31;6367765;22;20333;-62
2022/04/06 11:27:47;;;;;;;8.20;4.85;;;;;;;16.89;41.40;94950.78;6367631;22;20026;-60
2022/04/06 11:30:13;;;;;;;4.50;4.10;;;;;;;16.77;41.22;94936.44;6367726;22;20439;-60
2022/04/06 11:33:00;;;;;;;5.75;4.35;;;;;;;16.58;41.83;94944.13;6367781;22;20432;-60
2022/04/06 11:35:34;;;;;;;7.18;4.32;;;;;;;16.32;42.50;94940.34;6367277;22;20014;-59
2022/04/06 11:38:00;;;;;;;4.43;3.67;;;;;;;16.65;41.72;94938.84;6367342;22;20057;-60
2022/04/06 11:40:27;;;;;;;5.22;4.03;;;;;;;16.71;41.75;94935.41;6367280;22;20002;-60
2022/04/06 11:43:02;;;;;;;4.32;3.92;;;;;;;16.63;41.53;94932.09;6367251;22;20013;-61
2022/04/06 11:45:37;;;;;;;4.88;4.22;;;;;;;16.53;42.19;94927.97;6367581;22;19998;-60